createdAt,value
2023-02-12T00:01:35.754Z,103095.13
2023-02-12T00:04:02.182Z,103109.13
2023-02-12T00:06:28.592Z,103120.59
2023-02-12T00:08:56.344Z,103111.78
2023-02-12T00:11:28.484Z,103041.34
2023-02-12T00:13:55.735Z,103003.03
2023-02-12T00:16:25.658Z,102916.69
2023-02-12T00:18:54.268Z,103039.28
2023-02-12T00:21:22.135Z,103129.09
2023-02-12T00:23:49.175Z,103043.75
2023-02-12T00:26:18.208Z,103129.41
2023-02-12T00:28:44.969Z,102996.84
2023-02-12T00:31:15.156Z,103125.03
2023-02-12T00:33:41.981Z,103117.03
2023-02-12T00:36:12.743Z,103061.31
2023-02-12T00:38:39.090Z,103073.53
2023-02-12T00:41:05.466Z,103115.91
2023-02-12T00:43:31.908Z,102983.69
2023-02-12T00:45:58.713Z,103111.56
2023-02-12T00:48:25.366Z,103005.53
2023-02-12T00:50:51.785Z,103064.78
2023-02-12T00:53:18.212Z,103093.97
2023-02-12T00:55:44.559Z,103099.28
2023-02-12T00:58:11.162Z,102914.66
2023-02-12T01:00:37.572Z,102990.50
2023-02-12T01:03:05.485Z,103106.34
2023-02-12T01:05:32.128Z,102945.63
2023-02-12T01:07:58.545Z,102942.78
2023-02-12T01:10:25.196Z,103050.38
2023-02-12T01:12:51.702Z,102923.31
2023-02-12T01:15:19.220Z,103103.34
2023-02-12T01:17:45.902Z,103099.25
2023-02-12T01:20:17.558Z,103117.72
2023-02-12T01:22:44.760Z,103099.19
2023-02-12T01:25:11.792Z,103116.78
2023-02-12T01:27:38.809Z,103077.81
2023-02-12T01:30:09.031Z,103027.66
2023-02-12T01:32:35.479Z,103024.91
2023-02-12T01:35:02.203Z,103088.81
2023-02-12T01:37:28.566Z,103098.25
2023-02-12T01:39:54.928Z,102982.50
2023-02-12T01:42:21.325Z,103089.91
2023-02-12T01:45:12.807Z,103104.50
2023-02-12T01:47:45.050Z,103036.50
2023-02-12T01:50:15.898Z,102877.84
2023-02-12T01:52:50.316Z,103012.63
2023-02-12T02:30:30.279Z,103082.38
2023-02-12T02:33:09.962Z,102966.69
2023-02-12T02:35:58.162Z,103103.41
2023-02-12T02:38:34.152Z,102974.50
2023-02-12T02:41:27.575Z,102986.00
2023-02-12T02:43:54.670Z,103026.44
2023-02-12T02:46:32.460Z,102993.00
2023-02-12T02:49:03.242Z,103084.66
2023-02-12T02:51:34.709Z,102986.63
2023-02-12T02:54:15.072Z,103092.81
2023-02-12T02:56:44.991Z,103087.59
2023-02-12T02:59:21.890Z,103093.72
2023-02-12T03:01:58.017Z,102963.91
2023-02-12T03:04:38.973Z,103001.78
2023-02-12T03:07:13.861Z,103091.06
2023-02-12T03:09:45.226Z,102948.84
2023-02-12T03:12:20.012Z,103032.50
2023-02-12T03:14:58.020Z,102985.97
2023-02-12T03:17:32.642Z,102940.78
2023-02-12T03:20:05.382Z,102983.00
2023-02-12T03:22:36.110Z,103068.00
2023-02-12T03:25:41.547Z,103078.75
2023-02-12T03:28:20.555Z,102996.44
2023-02-12T03:31:03.402Z,102961.09
2023-02-12T03:33:42.016Z,103080.44
2023-02-12T03:36:21.309Z,102944.38
2023-02-12T03:38:55.306Z,102963.63
2023-02-12T03:41:28.087Z,102972.56
2023-02-12T03:44:08.283Z,102969.22
2023-02-12T03:46:47.048Z,102990.06
2023-02-12T03:49:23.712Z,102993.59
2023-02-12T03:51:50.296Z,102976.03
2023-02-12T03:54:19.900Z,102992.59
2023-02-12T03:56:52.411Z,102999.91
2023-02-12T03:59:21.189Z,102971.75
2023-02-12T04:01:49.986Z,103082.19
2023-02-12T04:04:17.222Z,103041.56
2023-02-12T04:06:44.468Z,102952.75
2023-02-12T04:09:12.776Z,102987.47
2023-02-12T04:11:39.186Z,103089.06
2023-02-12T04:14:41.236Z,103099.56
2023-02-12T04:17:26.485Z,103101.34
2023-02-12T04:20:15.477Z,103098.72
2023-02-12T04:22:48.734Z,103096.94
2023-02-12T04:25:39.320Z,103011.19
2023-02-12T04:28:44.166Z,103061.44
2023-02-12T04:31:24.116Z,103106.47
2023-02-12T04:34:18.593Z,102983.63
2023-02-12T04:36:51.671Z,103029.47
2023-02-12T04:39:23.043Z,103045.19
2023-02-12T04:41:49.735Z,102996.69
2023-02-12T04:44:24.405Z,103034.53
2023-02-12T04:46:51.608Z,102986.03
2023-02-12T04:49:20.700Z,103020.44
2023-02-12T04:51:48.132Z,103017.56
2023-02-12T04:54:16.172Z,103102.88
2023-02-12T04:56:42.899Z,103123.97
2023-02-12T04:59:09.795Z,103054.97
2023-02-12T05:01:37.898Z,103023.22
2023-02-12T05:04:06.249Z,103006.56
2023-02-12T05:06:36.140Z,102992.41
2023-02-12T05:09:02.775Z,103025.91
2023-02-12T05:11:29.181Z,103021.09
2023-02-12T05:13:55.734Z,103007.13
2023-02-12T05:16:22.338Z,102980.84
2023-02-12T05:18:48.921Z,103086.59
2023-02-12T05:21:15.485Z,103008.06
2023-02-12T05:23:42.615Z,103081.47
2023-02-12T05:26:13.200Z,103127.22
2023-02-12T05:28:40.109Z,103070.56
2023-02-12T05:31:08.681Z,103012.06
2023-02-12T05:33:35.440Z,103122.00
2023-02-12T05:36:05.948Z,103132.44
2023-02-12T05:38:32.483Z,103039.78
2023-02-12T05:41:06.517Z,103031.88
2023-02-12T05:43:33.287Z,103021.09
2023-02-12T05:46:01.261Z,103054.53
2023-02-12T05:48:29.049Z,103088.06
2023-02-12T05:51:02.462Z,103050.91
2023-02-12T05:53:28.856Z,103043.84
2023-02-12T05:55:55.624Z,103042.88
2023-02-12T05:58:22.175Z,103112.53
2023-02-12T06:00:48.543Z,103003.22
2023-02-12T06:03:14.903Z,103066.47
2023-02-12T06:05:41.258Z,103050.63
2023-02-12T06:08:07.734Z,103053.28
2023-02-12T06:10:34.065Z,103021.56
2023-02-12T06:13:00.495Z,103070.00
2023-02-12T06:15:26.843Z,103123.22
2023-02-12T06:17:53.193Z,103006.75
2023-02-12T06:20:19.538Z,103038.16
2023-02-12T06:22:45.937Z,103056.72
2023-02-12T06:25:12.322Z,103077.16
2023-02-12T06:27:38.693Z,103064.69
2023-02-12T06:30:05.675Z,103041.78
2023-02-12T06:32:32.031Z,103070.94
2023-02-12T06:34:58.398Z,103055.91
2023-02-12T06:37:25.817Z,103097.56
2023-02-12T06:39:52.225Z,103080.78
2023-02-12T06:42:18.729Z,103055.84
2023-02-12T06:44:46.592Z,103070.81
2023-02-12T06:47:13.029Z,103092.97
2023-02-12T06:49:39.380Z,103113.19
2023-02-12T06:52:05.815Z,103045.97
2023-02-12T06:54:32.211Z,103037.19
2023-02-12T06:56:58.597Z,103090.13
2023-02-12T06:59:24.998Z,103068.94
2023-02-12T07:01:51.341Z,103068.03
2023-02-12T07:04:17.857Z,103043.16
2023-02-12T07:06:44.307Z,103071.78
2023-02-12T07:09:10.731Z,103041.63
2023-02-12T07:11:38.731Z,103124.59
2023-02-12T07:14:06.191Z,103048.59
2023-02-12T07:16:32.778Z,103027.44
2023-02-12T07:19:00.483Z,103126.25
2023-02-12T07:21:26.903Z,102976.75
2023-02-12T07:23:53.393Z,103175.81
2023-02-12T07:26:21.380Z,103091.69
2023-02-12T07:28:49.012Z,103192.38
2023-02-12T07:31:17.931Z,103085.81
2023-02-12T07:33:45.072Z,103182.81
2023-02-12T07:36:14.115Z,103140.41
2023-02-12T07:38:40.979Z,103071.56
2023-02-12T07:41:15.274Z,103155.59
2023-02-12T07:43:43.398Z,103105.88
2023-02-12T07:46:12.529Z,103084.06
2023-02-12T07:48:39.589Z,103084.06
2023-02-12T07:51:08.783Z,103184.06
2023-02-12T07:53:36.030Z,103098.28
2023-02-12T07:56:10.827Z,103022.31
2023-02-12T07:58:38.324Z,103179.06
2023-02-12T08:01:32.948Z,103176.22
2023-02-12T08:04:02.393Z,103191.16
2023-02-12T08:06:31.271Z,103062.81
2023-02-12T08:09:00.407Z,103146.03
2023-02-12T08:11:28.900Z,103149.59
2023-02-12T08:13:57.013Z,103190.28
2023-02-12T08:16:26.275Z,103196.94
2023-02-12T08:18:53.325Z,103091.00
2023-02-12T08:21:22.722Z,103124.75
2023-02-12T08:23:52.556Z,103171.88
2023-02-12T08:26:26.255Z,103143.59
2023-02-12T08:28:56.386Z,103202.03
2023-02-12T08:31:28.296Z,103131.28
2023-02-12T08:33:56.200Z,103161.91
2023-02-12T08:36:34.187Z,103207.03
2023-02-12T08:39:03.208Z,103188.31
2023-02-12T08:41:30.460Z,103203.50
2023-02-12T08:43:59.916Z,103131.84
2023-02-12T08:46:31.399Z,103217.47
2023-02-12T08:49:00.715Z,103214.22
2023-02-12T08:51:30.431Z,103192.28
2023-02-12T08:53:59.636Z,103217.25
2023-02-12T08:56:28.322Z,103223.59
2023-02-12T08:58:55.671Z,103119.16
2023-02-12T09:01:24.435Z,103227.06
2023-02-12T09:03:51.938Z,103227.22
2023-02-12T09:06:20.297Z,103087.50
2023-02-12T09:08:46.935Z,103096.28
2023-02-12T09:11:19.108Z,103142.31
2023-02-12T09:13:47.311Z,103167.13
2023-02-12T09:16:14.398Z,103231.38
2023-02-12T09:19:12.075Z,103228.72
2023-02-12T09:21:38.571Z,103068.94
2023-02-12T09:24:05.056Z,103151.31
2023-02-12T09:26:36.573Z,103183.59
2023-02-12T09:29:04.261Z,103094.28
2023-02-12T09:31:32.290Z,103082.59
2023-02-12T09:34:04.464Z,103231.16
2023-02-12T09:36:31.503Z,103086.75
2023-02-12T09:38:59.437Z,103210.34
2023-02-12T09:42:00.014Z,103221.09
2023-02-12T09:44:48.211Z,103224.78
2023-02-12T09:47:44.484Z,103171.13
2023-02-12T09:50:29.843Z,103220.69
2023-02-12T09:52:59.052Z,103164.75
2023-02-12T09:55:32.654Z,103180.66
2023-02-12T09:58:02.147Z,103110.16
2023-02-12T10:00:31.458Z,103201.09
2023-02-12T10:03:05.109Z,103212.75
2023-02-12T10:05:37.851Z,103170.63
2023-02-12T10:08:07.214Z,103234.28
2023-02-12T10:10:45.724Z,103238.00
2023-02-12T10:13:27.125Z,103227.47
2023-02-12T10:16:18.230Z,103202.59
2023-02-12T10:19:06.356Z,103240.50
2023-02-12T10:22:03.805Z,103243.06
2023-02-12T10:24:49.260Z,103240.56
2023-02-12T10:27:20.721Z,103203.00
2023-02-12T10:29:48.727Z,103220.66
2023-02-12T10:32:35.847Z,103243.56
2023-02-12T10:35:12.449Z,103211.09
2023-02-12T10:37:57.331Z,103240.22
2023-02-12T10:40:33.885Z,103241.06
2023-02-12T10:43:02.452Z,103218.09
2023-02-12T10:45:33.850Z,103236.81
2023-02-12T10:48:12.325Z,103238.50
2023-02-12T10:50:49.412Z,103201.28
2023-02-12T10:53:26.153Z,103187.03
2023-02-12T10:56:25.690Z,103222.34
2023-02-12T10:58:59.544Z,103238.19
2023-02-12T11:01:25.995Z,103227.78
2023-02-12T11:03:54.184Z,103162.53
2023-02-12T11:06:30.467Z,103241.84
2023-02-12T11:09:00.716Z,103192.41
2023-02-12T11:11:36.955Z,103159.59
2023-02-12T11:14:16.602Z,103222.47
2023-02-12T11:17:02.514Z,103196.66
2023-02-12T11:19:32.407Z,103212.66
2023-02-12T11:22:18.530Z,103091.84
2023-02-12T11:24:46.986Z,103121.94
2023-02-12T11:27:16.316Z,103217.44
2023-02-12T11:29:44.551Z,103198.25
2023-02-12T11:32:21.059Z,103207.88
2023-02-12T11:35:10.819Z,103196.63
2023-02-12T11:37:41.968Z,103138.59
2023-02-12T11:40:16.729Z,103000.34
2023-02-12T11:42:49.457Z,103089.47
2023-02-12T11:45:19.715Z,103135.34
2023-02-12T11:47:48.958Z,103059.44
2023-02-12T11:50:26.787Z,103037.66
2023-02-12T11:52:59.046Z,103061.41
2023-02-12T11:55:33.138Z,103012.13
2023-02-12T11:58:17.425Z,103138.13
2023-02-12T12:00:54.542Z,103196.31
2023-02-12T12:03:49.201Z,103150.47
2023-02-12T12:06:27.349Z,103155.09
2023-02-12T12:09:05.685Z,103180.88
2023-02-12T12:11:58.133Z,103176.63
2023-02-12T12:14:34.352Z,103163.28
2023-02-12T12:17:24.793Z,103095.44
2023-02-12T12:19:59.487Z,103171.44
2023-02-12T12:22:53.585Z,103163.63
2023-02-12T12:25:28.683Z,103124.00
2023-02-12T12:28:23.159Z,103147.91
2023-02-12T12:31:20.479Z,103124.97
2023-02-12T12:33:52.768Z,103054.53
2023-02-12T12:36:41.398Z,103133.03
2023-02-12T12:39:21.276Z,103045.91
2023-02-12T12:42:12.626Z,103142.13
2023-02-12T12:45:01.861Z,103137.78
2023-02-12T12:47:54.253Z,103098.88
2023-02-12T12:50:45.541Z,103069.94
2023-02-12T12:53:14.915Z,103138.63
2023-02-12T12:56:18.321Z,103136.09
2023-02-12T12:59:15.142Z,103133.44
2023-02-12T13:01:53.527Z,103121.97
2023-02-12T13:04:55.977Z,103131.69
2023-02-12T13:07:30.842Z,103115.72
2023-02-12T13:10:34.848Z,103123.78
2023-02-12T13:13:20.339Z,103105.41
2023-02-12T13:16:16.041Z,103086.03
2023-02-12T13:18:47.624Z,103092.28
2023-02-12T13:21:19.944Z,103103.75
2023-02-12T13:23:57.754Z,102966.38
2023-02-12T13:26:42.790Z,103089.59
2023-02-12T13:29:19.010Z,103099.31
2023-02-12T13:31:51.152Z,103042.13
2023-02-12T13:34:19.910Z,103063.25
2023-02-12T13:36:48.287Z,102994.50
2023-02-12T13:39:18.781Z,103086.22
2023-02-12T13:41:58.473Z,102978.69
2023-02-12T13:44:36.767Z,102964.69
2023-02-12T13:47:13.530Z,103057.03
2023-02-12T13:49:55.664Z,103085.28
2023-02-12T13:52:27.972Z,103091.47
2023-02-12T13:55:19.317Z,103091.44
2023-02-12T13:57:45.732Z,102947.06
2023-02-12T14:00:50.021Z,103085.34
2023-02-12T14:03:16.478Z,103044.88
2023-02-12T14:05:43.006Z,103008.78
2023-02-12T14:08:35.429Z,103070.44
2023-02-12T14:11:12.776Z,103085.44
2023-02-12T14:13:58.285Z,102949.81
2023-02-12T14:16:32.446Z,103091.44
2023-02-12T14:19:37.306Z,103092.31
2023-02-12T14:22:26.157Z,103083.59
2023-02-12T14:24:54.914Z,103083.50
2023-02-12T14:27:36.476Z,103086.19
2023-02-12T14:30:31.525Z,103084.44
2023-02-12T14:33:10.745Z,102977.91
2023-02-12T14:35:42.491Z,103096.63
2023-02-12T14:38:12.040Z,103080.84
2023-02-12T14:40:44.014Z,103035.03
2023-02-12T14:44:01.328Z,103080.81
2023-02-12T14:46:27.730Z,103084.28
2023-02-12T14:49:06.053Z,103037.69
2023-02-12T14:54:45.318Z,103083.38
2023-02-12T14:57:22.679Z,102984.81
2023-02-12T14:59:52.178Z,102977.63
2023-02-12T15:02:30.694Z,103018.09
2023-02-12T15:05:09.706Z,103063.97
2023-02-12T15:07:44.537Z,102936.16
2023-02-12T15:10:24.599Z,103068.41
2023-02-12T15:13:07.366Z,102979.44
2023-02-12T15:15:39.811Z,102944.03
2023-02-12T15:18:30.798Z,103043.69
2023-02-12T15:21:14.093Z,102997.06
2023-02-12T15:23:43.268Z,102962.63
2023-02-12T15:26:18.936Z,103057.75
2023-02-12T15:28:54.793Z,103011.84
2023-02-12T15:31:29.379Z,103041.84
2023-02-12T15:34:01.138Z,102932.69
2023-02-12T15:36:31.213Z,102938.78
2023-02-12T15:39:06.866Z,102950.22
2023-02-12T15:41:33.297Z,103063.88
2023-02-12T15:44:24.964Z,102944.06
2023-02-12T15:47:14.003Z,103001.34
2023-02-12T15:49:43.117Z,102858.81
2023-02-12T15:52:18.602Z,103061.25
2023-02-12T15:54:46.734Z,103050.56
2023-02-12T15:57:20.041Z,103057.69
2023-02-12T15:59:54.617Z,102967.00
2023-02-12T16:02:37.609Z,102920.22
2023-02-12T16:05:05.718Z,102964.19
2023-02-12T16:07:36.843Z,103036.50
2023-02-12T16:10:08.210Z,102852.59
2023-02-12T16:12:37.586Z,103017.06
2023-02-12T16:15:04.815Z,103004.75
2023-02-12T16:17:34.363Z,103052.19
2023-02-12T16:20:15.273Z,102919.28
2023-02-12T16:22:44.511Z,102870.81
2023-02-12T16:25:19.053Z,103013.56
2023-02-12T16:28:17.764Z,103034.63
2023-02-12T16:30:45.007Z,103024.03
2023-02-12T16:33:53.260Z,103050.38
2023-02-12T16:36:19.670Z,103056.50
2023-02-12T16:38:52.078Z,102987.56
2023-02-12T16:41:18.443Z,103057.25
2023-02-12T16:43:46.433Z,103060.75
2023-02-12T16:46:14.571Z,103022.03
2023-02-12T16:48:49.255Z,103060.72
2023-02-12T16:51:33.854Z,103057.13
2023-02-12T16:54:02.310Z,103063.16
2023-02-12T16:56:31.420Z,103058.66
2023-02-12T16:58:59.840Z,103026.88
2023-02-12T17:01:33.394Z,103053.31
2023-02-12T17:04:01.716Z,103073.59
2023-02-12T17:06:31.039Z,103057.94
2023-02-12T17:08:58.228Z,103020.84
2023-02-12T17:11:26.075Z,103043.59
2023-02-12T17:13:54.211Z,102916.81
2023-02-12T17:16:30.258Z,102932.34
2023-02-12T17:18:57.475Z,102986.09
2023-02-12T17:21:27.333Z,102971.13
2023-02-12T17:23:56.621Z,102927.13
2023-02-12T17:26:24.312Z,103060.31
2023-02-12T17:28:50.894Z,103061.97
2023-02-12T17:31:17.585Z,103074.31
2023-02-12T17:33:44.422Z,103044.34
2023-02-12T17:36:11.731Z,103060.16
2023-02-12T17:38:38.172Z,103043.53
2023-02-12T17:41:09.888Z,102923.66
2023-02-12T17:43:36.496Z,103059.34
2023-02-12T17:46:09.140Z,103042.66
2023-02-12T17:48:35.640Z,103050.59
2023-02-12T17:51:02.128Z,102833.16
2023-02-12T17:53:28.481Z,103049.69
2023-02-12T17:55:54.826Z,103046.97
2023-02-12T17:58:21.178Z,102972.03
2023-02-12T18:00:47.586Z,103065.41
2023-02-12T18:03:14.230Z,102984.34
2023-02-12T18:05:43.343Z,103054.66
2023-02-12T18:08:12.585Z,102934.13
2023-02-12T18:10:43.577Z,102890.22
2023-02-12T18:13:14.054Z,103052.91
2023-02-12T18:15:41.316Z,102915.41
2023-02-12T18:18:08.422Z,103030.06
2023-02-12T18:20:42.137Z,102882.09
2023-02-12T18:23:09.691Z,102973.53
2023-02-12T18:25:43.959Z,102851.03
2023-02-12T18:28:34.907Z,103057.19
2023-02-12T18:31:05.268Z,102884.34
2023-02-12T18:33:34.018Z,102987.19
2023-02-12T18:36:18.341Z,103039.25
2023-02-12T18:38:46.606Z,102924.53
2023-02-12T18:41:18.672Z,103003.06
2023-02-12T18:43:45.965Z,102936.03
2023-02-12T18:46:15.325Z,103007.34
2023-02-12T18:48:45.302Z,102833.03
2023-02-12T18:51:17.470Z,103051.44
2023-02-12T18:53:44.206Z,102855.69
2023-02-12T18:56:12.015Z,102972.97
2023-02-12T18:58:39.524Z,102919.84
2023-02-12T19:01:19.995Z,103064.44
2023-02-12T19:03:56.312Z,102975.28
2023-02-12T19:06:23.821Z,103061.72
2023-02-12T19:08:54.871Z,102817.56
2023-02-12T19:11:21.368Z,102904.88
2023-02-12T19:13:51.006Z,103036.22
2023-02-12T19:16:19.170Z,103025.63
2023-02-12T19:18:50.510Z,102963.59
2023-02-12T19:21:17.538Z,102937.47
2023-02-12T19:23:48.556Z,102949.75
2023-02-12T19:26:18.082Z,102819.41
2023-02-12T19:28:44.545Z,103038.66
2023-02-12T19:31:18.356Z,103045.84
2023-02-12T19:33:46.360Z,102933.94
2023-02-12T19:36:15.903Z,102829.78
2023-02-12T19:38:48.638Z,103018.41
2023-02-12T19:41:21.975Z,102947.81
2023-02-12T19:43:51.137Z,102879.94
2023-02-12T19:46:19.698Z,102957.41
2023-02-12T19:48:49.317Z,102931.94
2023-02-12T19:51:20.571Z,102925.59
2023-02-12T19:53:50.297Z,102924.91
2023-02-12T19:56:17.358Z,102891.22
2023-02-12T19:58:48.100Z,102886.66
2023-02-12T20:01:19.432Z,102864.72
2023-02-12T20:03:50.711Z,102890.28
2023-02-12T20:06:24.157Z,103016.94
2023-02-12T20:08:56.481Z,102892.50
2023-02-12T20:11:32.418Z,102895.19
2023-02-12T20:14:04.684Z,102797.28
2023-02-12T20:16:55.396Z,102939.78
2023-02-12T20:19:25.477Z,102930.69
2023-02-12T20:22:01.617Z,103039.91
2023-02-12T20:25:18.254Z,102889.03
2023-02-12T20:27:25.495Z,102884.38
2023-02-12T20:30:24.909Z,102845.69
2023-02-12T20:36:46.690Z,102910.75
2023-02-12T20:39:30.986Z,102825.41
2023-02-12T20:41:57.761Z,102912.59
2023-02-12T20:44:24.463Z,102880.81
2023-02-12T20:46:56.119Z,102880.94
2023-02-12T20:49:23.901Z,102989.22
2023-02-12T20:51:50.946Z,103051.78
2023-02-12T20:54:26.869Z,102832.47
2023-02-12T20:56:53.737Z,102891.38
2023-02-12T20:59:22.902Z,102832.47
2023-02-12T21:02:15.529Z,103044.94
2023-02-12T21:11:31.867Z,102839.09
2023-02-12T21:14:36.755Z,102907.75
2023-02-12T21:21:26.938Z,103041.56
2023-02-12T21:24:03.711Z,102865.19
2023-02-12T21:27:06.601Z,102970.22
2023-02-12T21:29:43.327Z,102840.84
2023-02-12T21:33:26.746Z,102895.31
2023-02-12T21:39:17.820Z,102946.50
2023-02-12T21:42:50.087Z,102847.69
2023-02-12T21:53:06.607Z,103025.94
2023-02-12T22:04:11.032Z,102952.78
2023-02-12T22:06:43.253Z,102856.66
2023-02-12T22:09:12.580Z,102883.88
2023-02-12T22:11:43.184Z,102831.56
2023-02-12T22:14:14.280Z,102824.44
2023-02-12T22:16:42.297Z,102937.41
2023-02-12T22:19:09.510Z,102830.63
2023-02-12T22:21:39.080Z,102943.44
2023-02-12T22:24:07.954Z,102847.22
2023-02-12T22:26:35.543Z,102843.81
2023-02-12T22:29:09.317Z,102814.59
2023-02-12T22:31:38.762Z,102854.63
2023-02-12T22:34:10.514Z,102844.97
2023-02-12T22:36:40.121Z,102827.63
2023-02-12T22:39:07.164Z,102790.44
2023-02-12T22:41:34.495Z,102881.88
2023-02-12T22:44:05.135Z,102867.41
2023-02-12T22:46:33.781Z,102841.63
2023-02-12T22:49:03.492Z,102832.00
2023-02-12T22:51:37.214Z,102845.63
2023-02-12T22:54:07.438Z,102827.22
2023-02-12T22:56:37.150Z,102846.41
2023-02-12T22:59:14.545Z,102838.03
2023-02-12T23:01:42.593Z,102838.09
2023-02-12T23:04:19.417Z,102981.69
2023-02-12T23:06:48.031Z,102867.59
2023-02-12T23:09:18.487Z,102852.50
2023-02-12T23:14:27.946Z,102958.44
2023-02-12T23:17:07.275Z,102861.88
2023-02-12T23:19:38.114Z,102968.06
2023-02-12T23:22:09.757Z,102921.13
2023-02-12T23:24:41.069Z,102883.28
2023-02-12T23:27:08.660Z,102880.69
2023-02-12T23:29:36.311Z,102836.69
2023-02-12T23:32:03.883Z,102908.16
2023-02-12T23:34:34.071Z,102902.94
2023-02-12T23:37:04.752Z,102969.25
2023-02-12T23:39:32.253Z,102829.06
2023-02-12T23:41:59.412Z,102820.34
2023-02-12T23:44:26.230Z,102889.16
2023-02-12T23:46:54.477Z,102827.53
2023-02-12T23:49:21.869Z,102805.06
2023-02-12T23:51:49.104Z,102937.97
2023-02-12T23:54:18.776Z,102877.53
2023-02-12T23:56:45.845Z,102810.53
2023-02-12T23:59:12.913Z,102799.09
